Terminal Aerodrome Forecast
Issued by NWS

Home | Current Version | Previous Version | Text Only | Print | Product List | Glossary On
Versions: 1 2 3 4 5 6 7 8 9 10 11 12 13 14 15 16
000
FTUS46 KSGX 191152
TAFCRQ
TAF
KCRQ 191152Z 1912/2012 18012G18KT 3SM RA BR SCT005 OVC012
     FM191800 VRB07KT P6SM -SHRA SCT012 BKN025
     FM192200 25010G18KT P6SM VCSH SCT022 BKN035
     FM200400 23007KT P6SM BKN020=

USA.gov is the U.S. government's official web portal to all federal, state and local government web resources and services.